Time;durP1;ratioP1;P1;durP2;ratioP2;P2;SDS_P1;SDS_P2;PMS_P1;PMS_P2;Temp;Humidity;BMP_temperature;BMP_pressure;BME280_temperature;BME280_humidity;BME280_pressure;Samples;Min_cycle;Max_cycle;Signal;HPM_P1;HPM_P2
2021/01/11 00:02:11;;;;;;;112.57;55.00;;;;;;;0.43;63.36;99678.95;260894;1103;114871;-70
2021/01/11 00:07:15;;;;;;;118.80;54.87;;;;;;;0.39;64.42;99684.25;261120;1101;114941;-70
2021/01/11 00:12:18;;;;;;;109.77;55.90;;;;;;;0.39;63.46;99686.87;260779;1101;115249;-68
2021/01/11 00:17:24;;;;;;;123.13;57.67;;;;;;;0.35;64.30;99680.80;259572;1102;115140;-69
2021/01/11 00:22:27;;;;;;;118.43;55.77;;;;;;;0.26;63.71;99673.03;257518;1101;115242;-69
2021/01/11 00:27:30;;;;;;;114.90;54.37;;;;;;;0.17;63.75;99674.01;260410;1101;114979;-69
2021/01/11 00:32:39;;;;;;;120.50;54.50;;;;;;;0.11;63.39;99665.34;261108;1101;115000;-69
2021/01/11 00:37:43;;;;;;;115.23;53.53;;;;;;;0.07;63.90;99661.89;258737;1102;114987;-68
2021/01/11 00:42:46;;;;;;;116.73;56.95;;;;;;;0.06;64.13;99669.74;261076;1101;114762;-70
2021/01/11 00:47:49;;;;;;;100.00;47.90;;;;;;;0.03;62.92;99664.53;261064;1101;115309;-68
2021/01/11 00:52:53;;;;;;;93.37;46.75;;;;;;;0.01;64.12;99661.95;261001;1101;115947;-69
2021/01/11 00:57:57;;;;;;;94.53;45.27;;;;;;;-0.02;63.95;99665.45;261018;1101;114849;-69
2021/01/11 01:03:02;;;;;;;87.97;43.33;;;;;;;-0.05;63.30;99662.00;260948;1101;114970;-69
2021/01/11 01:08:04;;;;;;;91.67;44.43;;;;;;;-0.09;64.22;99658.55;260852;1104;114893;-69
2021/01/11 01:13:07;;;;;;;90.63;44.27;;;;;;;-0.14;64.14;99652.47;261328;1101;115072;-69
2021/01/11 01:18:09;;;;;;;85.70;43.87;;;;;;;-0.19;63.04;99637.72;260902;1104;114817;-69
2021/01/11 01:23:12;;;;;;;79.03;40.20;;;;;;;-0.22;63.19;99640.36;261044;1103;115347;-69
2021/01/11 01:28:15;;;;;;;83.10;41.87;;;;;;;-0.23;63.90;99628.17;260921;1104;115642;-68
2021/01/11 01:33:17;;;;;;;90.37;43.00;;;;;;;-0.22;64.48;99622.05;261208;1101;114913;-69
2021/01/11 01:38:19;;;;;;;87.00;43.23;;;;;;;-0.25;63.83;99625.55;260896;1103;114963;-69
2021/01/11 01:43:22;;;;;;;104.87;48.20;;;;;;;-0.31;63.18;99616.00;261085;1101;114813;-69
2021/01/11 01:48:24;;;;;;;101.23;48.70;;;;;;;-0.34;64.51;99623.01;260918;1101;115937;-69
2021/01/11 01:53:26;;;;;;;109.50;51.70;;;;;;;-0.32;63.67;99619.50;260855;1101;115039;-69
2021/01/11 01:58:29;;;;;;;109.97;50.80;;;;;;;-0.30;64.40;99619.52;261023;1102;114887;-69
2021/01/11 02:03:31;;;;;;;112.10;52.23;;;;;;;-0.34;64.43;99612.55;260875;1104;115330;-69
2021/01/11 02:08:55;;;;;;;109.37;52.70;;;;;;;-0.36;64.55;99606.48;260871;1104;216216;-69
2021/01/11 02:14:24;;;;;;;112.40;51.77;;;;;;;-0.41;64.21;99606.50;259928;1103;116229;-71
2021/01/11 02:19:48;;;;;;;118.33;52.20;;;;;;;-0.42;63.42;99610.01;260855;1101;115179;-69
2021/01/11 02:25:21;;;;;;;115.03;52.50;;;;;;;-0.41;63.54;99600.41;261014;1101;115314;-68
2021/01/11 02:30:36;;;;;;;112.23;51.40;;;;;;;-0.44;63.11;99605.66;260955;1104;114972;-68
2021/01/11 02:35:48;;;;;;;;;;;;;;;-0.46;64.42;99607.44;260977;1102;115267;-68
2021/01/11 02:40:51;;;;;;;115.03;50.90;;;;;;;-0.54;63.67;99608.38;260845;1101;103545;-68
2021/01/11 02:45:54;;;;;;;125.27;55.08;;;;;;;-0.59;64.35;99601.44;261101;1101;115885;-68
2021/01/11 02:51:22;;;;;;;121.40;54.57;;;;;;;-0.70;64.17;99601.53;260867;1103;115076;-68
2021/01/11 02:56:44;;;;;;;113.97;54.10;;;;;;;-0.80;64.32;99602.47;259918;1103;115194;-70
2021/01/11 03:02:02;;;;;;;109.70;50.57;;;;;;;-0.80;63.33;99605.95;261063;1101;114771;-70
2021/01/11 03:07:07;;;;;;;109.93;51.43;;;;;;;-0.76;63.78;99601.56;261348;1101;115314;-70
2021/01/11 03:12:11;;;;;;;105.45;47.65;;;;;;;-0.80;64.35;99594.63;260495;1101;118170;-70
2021/01/11 03:17:14;;;;;;;112.80;51.47;;;;;;;-0.87;64.29;99592.95;261119;1101;115401;-70
2021/01/11 03:22:17;;;;;;;108.17;48.60;;;;;;;-0.86;64.59;99586.83;261384;1101;116467;-70
2021/01/11 03:27:20;;;;;;;117.47;51.00;;;;;;;-0.83;64.58;99590.29;261024;1101;115186;-70
2021/01/11 03:32:22;;;;;;;112.37;52.73;;;;;;;-0.83;63.59;99598.13;261347;1101;115027;-70
2021/01/11 03:37:24;;;;;;;114.93;52.37;;;;;;;-0.80;63.79;99592.88;260751;1103;115187;-70
2021/01/11 03:42:27;;;;;;;115.13;51.47;;;;;;;-0.81;64.27;99593.77;261130;1103;115151;-70
2021/01/11 03:47:29;;;;;;;114.87;53.03;;;;;;;-0.85;62.97;99594.68;261311;1101;115430;-70
2021/01/11 03:52:36;;;;;;;110.60;50.30;;;;;;;-0.89;64.00;99598.16;261014;1101;115571;-70
2021/01/11 03:57:38;;;;;;;114.00;50.47;;;;;;;-0.96;63.02;99597.34;260957;1103;115048;-70
2021/01/11 04:02:40;;;;;;;115.90;52.17;;;;;;;-0.98;62.73;99600.86;260896;1103;115095;-70
2021/01/11 04:07:43;;;;;;;111.80;50.87;;;;;;;-1.00;63.37;99602.60;261120;1101;115164;-70
2021/01/11 04:12:46;;;;;;;109.00;52.73;;;;;;;-1.06;62.80;99593.05;260918;1104;115235;-70
2021/01/11 04:17:51;;;;;;;107.47;49.47;;;;;;;-1.03;63.69;99602.62;261446;1101;115059;-70
2021/01/11 04:22:53;;;;;;;114.17;51.20;;;;;;;-1.01;64.18;99600.88;260935;1103;115025;-70
2021/01/11 04:27:57;;;;;;;110.73;49.33;;;;;;;-1.02;63.16;99592.18;260842;1101;115226;-70
2021/01/11 04:32:59;;;;;;;113.33;49.57;;;;;;;-1.13;62.46;99593.10;261331;1101;114726;-71
2021/01/11 04:38:01;;;;;;;110.77;48.00;;;;;;;-1.22;63.40;99589.68;261168;1101;115028;-71
2021/01/11 04:43:18;;;;;;;104.87;48.60;;;;;;;-1.26;62.79;99587.08;261224;1101;115062;-71
2021/01/11 04:48:22;;;;;;;112.93;49.37;;;;;;;-1.31;62.92;99587.11;261010;1101;115011;-71
2021/01/11 04:53:26;;;;;;;127.27;53.33;;;;;;;-1.33;63.64;99583.63;261004;1101;115192;-71
2021/01/11 04:59:06;;;;;;;128.03;56.47;;;;;;;-1.29;63.26;99585.38;260978;1104;115076;-71
2021/01/11 05:04:10;;;;;;;139.10;58.90;;;;;;;-1.20;64.10;99590.52;260662;1103;115002;-71
2021/01/11 05:09:14;;;;;;;136.30;55.13;;;;;;;-1.13;63.01;99593.10;260981;1101;115094;-71
2021/01/11 05:14:17;;;;;;;134.78;57.58;;;;;;;-1.16;63.43;99587.89;260967;1102;115497;-71
2021/01/11 05:19:26;;;;;;;137.00;56.40;;;;;;;-1.17;64.55;99584.42;261224;1101;114803;-71
2021/01/11 05:24:32;;;;;;;130.60;57.87;;;;;;;-1.26;63.57;99587.08;260947;1101;114936;-71
2021/01/11 05:29:36;;;;;;;124.20;55.43;;;;;;;-1.27;63.33;99590.57;260926;1101;115249;-71
2021/01/11 05:34:52;;;;;;;131.20;56.85;;;;;;;-1.26;63.55;99587.97;261036;1101;115301;-70
2021/01/11 05:40:16;;;;;;;128.23;55.97;;;;;;;-1.24;64.04;99580.98;261351;1101;114854;-71
2021/01/11 05:45:27;;;;;;;130.67;58.23;;;;;;;-1.21;62.97;99591.41;261106;1101;116061;-71
2021/01/11 05:50:40;;;;;;;125.77;56.07;;;;;;;-1.18;62.96;99584.45;261174;1101;115530;-71
2021/01/11 05:55:43;;;;;;;125.30;52.07;;;;;;;-1.25;63.44;99588.83;261225;1101;114938;-73
2021/01/11 06:00:46;;;;;;;123.70;52.93;;;;;;;-1.25;63.60;99587.08;260961;1101;115773;-72
2021/01/11 06:05:48;;;;;;;120.03;51.57;;;;;;;-1.27;62.86;99601.02;261106;1101;115194;-71
2021/01/11 06:10:53;;;;;;;130.90;54.63;;;;;;;-1.28;63.53;99607.98;260972;1101;115563;-71
2021/01/11 06:15:58;;;;;;;129.17;53.27;;;;;;;-1.24;64.43;99614.92;260927;1101;115956;-70
2021/01/11 06:21:10;;;;;;;129.33;54.47;;;;;;;-1.25;64.03;99610.58;261371;1101;115500;-71
2021/01/11 06:26:24;;;;;;;;;;;;;;;-1.25;64.21;99615.80;261212;1101;115255;-71
2021/01/11 06:31:29;;;;;;;136.53;55.43;;;;;;;-1.24;63.25;99621.89;261239;1100;102419;-71
2021/01/11 06:36:35;;;;;;;125.23;54.13;;;;;;;-1.28;63.52;99623.65;260965;1101;115361;-71
2021/01/11 06:41:38;;;;;;;125.33;54.13;;;;;;;-1.31;63.48;99626.27;261109;1101;115394;-70
2021/01/11 06:46:42;;;;;;;137.33;58.07;;;;;;;-1.31;63.59;99628.02;261375;1101;115040;-71
2021/01/11 06:51:51;;;;;;;140.63;58.63;;;;;;;-1.34;63.86;99620.20;261064;1101;115486;-70
2021/01/11 06:57:06;;;;;;;144.73;62.50;;;;;;;-1.38;62.73;99624.56;261445;1101;115159;-70
2021/01/11 07:02:23;;;;;;;135.47;59.80;;;;;;;-1.34;62.94;99622.81;261092;1101;115885;-70
2021/01/11 07:07:27;;;;;;;139.88;59.73;;;;;;;-1.29;64.54;99618.42;260649;1097;115334;-64
2021/01/11 07:12:30;;;;;;;143.77;60.77;;;;;;;-1.17;64.45;99617.50;260923;1103;115162;-65
2021/01/11 07:17:48;;;;;;;146.23;58.23;;;;;;;-1.04;64.16;99616.56;260898;1104;116530;-64
2021/01/11 07:22:50;;;;;;;145.83;61.80;;;;;;;-0.99;63.73;99620.00;260871;1104;115444;-66
2021/01/11 07:27:57;;;;;;;131.93;57.67;;;;;;;-0.90;63.77;99624.31;260961;1103;115232;-64
2021/01/11 07:32:59;;;;;;;142.03;60.07;;;;;;;-0.89;64.34;99629.52;261058;1104;114756;-64
2021/01/11 07:38:02;;;;;;;142.43;61.20;;;;;;;-0.87;63.76;99633.00;260979;1103;115140;-65
2021/01/11 07:43:05;;;;;;;134.70;62.27;;;;;;;-0.88;63.14;99635.60;261028;1104;115362;-64
2021/01/11 07:48:08;;;;;;;147.75;64.58;;;;;;;-0.86;63.32;99639.95;260976;1104;114992;-66
2021/01/11 07:53:11;;;;;;;130.77;60.10;;;;;;;-0.76;63.89;99644.23;260834;1104;115194;-64
2021/01/11 07:58:13;;;;;;;135.43;61.13;;;;;;;-0.69;63.96;99641.59;260992;1103;115226;-65
2021/01/11 08:03:20;;;;;;;133.17;60.57;;;;;;;-0.64;64.35;99639.83;261057;1104;115063;-65
2021/01/11 08:08:24;;;;;;;143.50;61.47;;;;;;;-0.62;63.56;99641.52;260835;1103;115057;-64
2021/01/11 08:13:26;;;;;;;130.40;57.13;;;;;;;-0.60;63.83;99644.15;260780;1103;115263;-65
2021/01/11 08:18:29;;;;;;;136.87;60.77;;;;;;;-0.56;63.02;99648.47;260954;1104;115132;-65
2021/01/11 08:23:31;;;;;;;130.13;61.23;;;;;;;-0.45;62.97;99640.54;260761;1104;115125;-65
2021/01/11 08:28:38;;;;;;;136.93;62.20;;;;;;;-0.32;64.57;99648.27;260976;1104;115482;-63
2021/01/11 08:33:40;;;;;;;131.03;59.73;;;;;;;-0.22;63.24;99646.45;261007;1104;115808;-64
2021/01/11 08:39:01;;;;;;;116.70;54.63;;;;;;;-0.09;63.42;99641.98;260873;1103;115290;-66
2021/01/11 08:44:04;;;;;;;117.97;54.93;;;;;;;0.09;64.13;99648.78;260901;1103;115018;-64
2021/01/11 08:49:06;;;;;;;127.23;55.07;;;;;;;0.26;62.88;99651.23;260999;1103;114945;-64
2021/01/11 08:54:09;;;;;;;121.10;55.87;;;;;;;0.34;63.40;99650.28;261028;1103;114859;-64
2021/01/11 08:59:16;;;;;;;117.83;55.50;;;;;;;0.45;62.98;99647.53;260758;1103;115006;-64
2021/01/11 09:04:38;;;;;;;121.07;55.83;;;;;;;0.55;63.90;99643.93;260907;1104;114849;-65
2021/01/11 09:09:40;;;;;;;134.60;60.33;;;;;;;0.68;62.98;99642.03;260919;1104;114867;-65
2021/01/11 09:14:54;;;;;;;123.50;57.30;;;;;;;0.77;62.97;99641.04;260771;1103;115373;-65
2021/01/11 09:20:03;;;;;;;119.77;55.23;;;;;;;0.92;62.87;99640.86;260818;1103;115676;-67
2021/01/11 09:25:23;;;;;;;101.97;47.53;;;;;;;1.02;62.64;99644.19;260658;1104;115042;-67
2021/01/11 09:30:39;;;;;;;94.30;45.97;;;;;;;1.10;62.21;99639.73;260080;1103;115687;-70
2021/01/11 09:36:05;;;;;;;90.83;43.97;;;;;;;1.16;62.70;99639.65;260302;1104;114894;-69
2021/01/11 09:41:24;;;;;;;89.93;43.33;;;;;;;1.23;62.14;99632.56;260277;1104;115192;-69
2021/01/11 09:46:50;;;;;;;96.00;47.27;;;;;;;1.30;61.87;99632.44;260683;1104;115937;-69
2021/01/11 09:51:58;;;;;;;103.97;48.60;;;;;;;1.44;62.46;99634.85;260551;1105;115552;-69
2021/01/11 09:57:12;;;;;;;90.85;44.23;;;;;;;1.61;62.32;99624.95;260157;1104;115425;-70
2021/01/11 10:02:27;;;;;;;101.77;46.90;;;;;;;1.68;61.86;99622.23;259885;1106;114786;-70
2021/01/11 10:08:15;;;;;;;;;;;;;;;;;;;;;
2021/01/11 10:14:00;;;;;;;;;;;;;;;;;;;;;
2021/01/11 10:19:20;;;;;;;76.60;37.73;;;;;;;1.95;61.12;99607.78;258451;1104;115839;-68
2021/01/11 10:24:47;;;;;;;;;;;;;;;;;;;;;
2021/01/11 10:30:26;;;;;;;66.03;33.40;;;;;;;2.23;61.15;99595.86;260772;1104;115015;-69
2021/01/11 10:35:33;;;;;;;80.17;40.30;;;;;;;2.40;61.07;99585.02;260096;1104;114995;-68
2021/01/11 10:41:03;;;;;;;;;;;;;;;;;;;;;
2021/01/11 10:46:15;;;;;;;66.77;34.03;;;;;;;2.61;60.55;99573.20;260833;1104;114749;-69
2021/01/11 10:51:25;;;;;;;58.83;30.43;;;;;;;2.80;60.52;99564.03;260318;1104;115118;-70
2021/01/11 10:56:42;;;;;;;59.70;31.47;;;;;;;2.99;60.58;99553.98;260314;1104;115414;-69
2021/01/11 11:01:54;;;;;;;52.67;25.87;;;;;;;2.99;59.50;99543.47;260233;1104;114736;-70
2021/01/11 11:07:09;;;;;;;49.35;25.35;;;;;;;2.96;59.29;99538.28;260719;1104;115698;-69
2021/01/11 11:12:20;;;;;;;53.17;25.80;;;;;;;2.90;59.00;99534.92;260784;1104;115136;-68
2021/01/11 11:17:58;;;;;;;44.60;23.50;;;;;;;2.96;58.94;99534.79;259954;1106;115393;-70
2021/01/11 11:23:16;;;;;;;53.63;25.57;;;;;;;2.92;58.58;99528.73;260845;1104;114661;-69
2021/01/11 11:28:33;;;;;;;55.37;30.33;;;;;;;2.89;58.93;99527.91;260624;1104;115305;-70
2021/01/11 11:34:02;;;;;;;59.17;28.63;;;;;;;2.90;58.70;99512.13;260277;1104;114739;-71
2021/01/11 11:39:49;;;;;;;;;;;;;;;;;;;;;
2021/01/11 11:45:50;;;;;;;57.33;28.90;;;;;;;2.94;58.54;99507.66;258815;1104;115580;-68
2021/01/11 11:51:16;;;;;;;60.63;29.27;;;;;;;2.96;58.91;99497.98;258798;1106;114628;-70
2021/01/11 11:56:47;;;;;;;58.90;28.50;;;;;;;3.01;58.54;99496.95;259886;1104;114440;-68
2021/01/11 12:01:55;;;;;;;60.30;29.43;;;;;;;3.02;58.37;99484.67;260050;1104;115232;-67
2021/01/11 12:06:58;;;;;;;56.33;27.17;;;;;;;3.07;58.46;99483.66;259939;1104;114749;-66
2021/01/11 12:12:05;;;;;;;51.50;25.85;;;;;;;3.10;58.31;99476.62;260671;1104;115194;-67
2021/01/11 12:17:13;;;;;;;53.23;27.33;;;;;;;3.11;58.05;99459.93;260633;1104;115042;-67
2021/01/11 12:22:36;;;;;;;47.53;23.97;;;;;;;3.15;58.10;99464.20;260581;1104;114858;-67
2021/01/11 12:27:42;;;;;;;43.10;23.47;;;;;;;3.17;57.78;99460.64;260917;1104;114815;-67
2021/01/11 12:32:46;;;;;;;52.67;23.50;;;;;;;3.17;57.59;99455.38;260775;1104;115520;-66
2021/01/11 12:37:54;;;;;;;33.70;18.33;;;;;;;3.23;57.33;99438.59;260717;1104;115010;-66
2021/01/11 12:42:56;;;;;;;42.57;22.00;;;;;;;3.25;57.30;99435.00;260890;1103;114913;-65
2021/01/11 12:47:58;;;;;;;42.93;19.10;;;;;;;3.42;57.35;99434.55;260844;1104;114903;-66
2021/01/11 12:53:03;;;;;;;37.25;20.57;;;;;;;3.63;57.27;99429.62;260758;1103;114924;-66
2021/01/11 12:58:12;;;;;;;44.47;22.20;;;;;;;3.82;57.26;99429.98;260645;1104;114868;-67
2021/01/11 13:03:26;;;;;;;47.17;24.33;;;;;;;3.94;56.82;99433.13;260873;1104;115078;-67
2021/01/11 13:08:31;;;;;;;52.17;24.70;;;;;;;3.96;56.64;99428.67;260760;1104;114689;-67
2021/01/11 13:13:44;;;;;;;45.10;24.47;;;;;;;3.96;56.34;99433.93;260523;1104;115781;-67
2021/01/11 13:18:54;;;;;;;47.20;24.47;;;;;;;3.93;55.90;99423.48;260267;1104;114422;-66
2021/01/11 13:23:58;;;;;;;49.70;25.88;;;;;;;3.91;55.91;99435.85;260800;1104;114949;-66
2021/01/11 13:29:17;;;;;;;;;;;;;;;;;;;;;
2021/01/11 13:34:25;;;;;;;53.07;28.10;;;;;;;3.94;56.00;99427.87;260793;1104;114554;-67
2021/01/11 13:39:33;;;;;;;52.33;26.57;;;;;;;3.99;56.60;99428.58;260801;1104;114740;-67
2021/01/11 13:45:00;;;;;;;;;;;;;;;;;;;;;
2021/01/11 13:50:35;;;;;;;54.53;26.97;;;;;;;4.05;56.35;99422.28;260644;1104;114770;-68
2021/01/11 13:55:38;;;;;;;50.60;25.43;;;;;;;3.99;56.21;99423.31;260651;1104;115118;-67
2021/01/11 14:01:07;;;;;;;59.33;26.63;;;;;;;3.92;55.92;99432.30;260886;1104;115186;-68
2021/01/11 14:06:13;;;;;;;60.07;28.80;;;;;;;3.82;56.13;99417.67;260705;1104;115411;-67
2021/01/11 14:11:26;;;;;;;57.67;27.53;;;;;;;3.73;55.76;99418.78;260776;1104;115943;-67
2021/01/11 14:16:28;;;;;;;54.80;28.97;;;;;;;3.63;55.55;99419.95;260379;1104;115006;-67
2021/01/11 14:21:36;;;;;;;60.60;30.10;;;;;;;3.56;55.82;99423.66;260789;1103;115322;-68
2021/01/11 14:27:01;;;;;;;58.73;29.30;;;;;;;3.45;56.31;99416.06;260596;1104;114664;-67
2021/01/11 14:32:04;;;;;;;64.77;33.10;;;;;;;3.32;55.74;99417.29;260770;1104;115160;-67
2021/01/11 14:37:07;;;;;;;69.97;35.63;;;;;;;3.23;56.33;99420.19;260702;1104;115085;-67
2021/01/11 14:42:11;;;;;;;67.53;34.50;;;;;;;3.17;56.35;99413.30;260839;1104;114832;-67
2021/01/11 14:47:13;;;;;;;71.17;36.40;;;;;;;3.13;55.91;99424.81;260809;1104;114839;-67
2021/01/11 14:52:16;;;;;;;76.70;39.60;;;;;;;3.11;56.61;99425.75;258426;1104;114945;-70
2021/01/11 14:57:18;;;;;;;72.20;36.77;;;;;;;3.06;56.26;99428.50;260592;1104;115145;-67
2021/01/11 15:02:34;;;;;;;86.00;39.57;;;;;;;2.93;56.39;99427.94;260775;1104;115116;-67
2021/01/11 15:07:36;;;;;;;72.03;36.47;;;;;;;2.79;56.20;99424.80;260637;1104;114837;-67
2021/01/11 15:12:38;;;;;;;61.67;31.17;;;;;;;2.71;56.71;99418.84;260713;1104;114842;-67
2021/01/11 15:17:43;;;;;;;66.17;30.53;;;;;;;2.62;56.26;99414.69;260886;1104;115527;-68
2021/01/11 15:22:52;;;;;;;51.63;28.33;;;;;;;2.53;56.28;99422.77;260736;1104;115604;-68
2021/01/11 15:28:04;;;;;;;53.00;26.80;;;;;;;2.44;56.29;99415.09;260619;1104;114828;-68
2021/01/11 15:33:14;;;;;;;52.03;26.73;;;;;;;2.33;56.61;99425.85;260593;1104;114949;-67
2021/01/11 15:38:18;;;;;;;48.87;24.53;;;;;;;2.29;56.49;99418.95;260853;1104;114887;-67
2021/01/11 15:43:30;;;;;;;48.80;25.97;;;;;;;2.19;56.54;99423.53;260932;1104;114830;-67
2021/01/11 15:48:44;;;;;;;57.00;25.75;;;;;;;2.09;57.00;99420.23;260922;1103;115549;-67
2021/01/11 15:54:03;;;;;;;59.80;27.10;;;;;;;2.01;57.03;99408.20;260862;1104;115402;-68
2021/01/11 15:59:28;;;;;;;;;;;;;;;;;;;;;
2021/01/11 16:04:41;;;;;;;62.00;27.43;;;;;;;1.89;57.14;99409.30;260967;1104;114755;-69
2021/01/11 16:09:51;;;;;;;60.67;27.83;;;;;;;1.83;57.19;99406.80;260648;1104;114930;-68
2021/01/11 16:15:46;;;;;;;;;;;;;;;;;;;;;
2021/01/11 16:20:55;;;;;;;59.80;26.57;;;;;;;1.69;56.81;99391.34;260709;1104;115232;-69
2021/01/11 16:26:05;;;;;;;62.80;27.30;;;;;;;1.60;57.02;99384.54;260753;1104;114977;-68
2021/01/11 16:31:27;;;;;;;51.60;27.40;;;;;;;1.57;57.42;99389.84;260625;1104;114606;-68
2021/01/11 16:36:30;;;;;;;58.43;28.40;;;;;;;1.53;57.40;99388.18;260804;1104;114844;-68
2021/01/11 16:41:55;;;;;;;51.83;24.77;;;;;;;1.50;57.42;99375.13;260798;1104;114798;-68
2021/01/11 16:47:03;;;;;;;53.23;23.83;;;;;;;1.46;56.76;99378.71;260797;1104;114805;-68
2021/01/11 16:52:06;;;;;;;49.47;25.10;;;;;;;1.44;57.32;99380.48;260756;1103;114897;-68
2021/01/11 16:57:25;;;;;;;55.07;25.80;;;;;;;1.48;57.56;99371.66;260401;1104;114935;-67
2021/01/11 17:02:30;;;;;;;51.50;25.83;;;;;;;1.46;57.59;99357.73;260567;1104;115794;-65
2021/01/11 17:07:33;;;;;;;54.20;26.40;;;;;;;1.42;57.37;99369.16;260721;1104;114809;-65
2021/01/11 17:12:39;;;;;;;53.03;27.67;;;;;;;1.38;57.56;99359.63;260598;1103;115618;-66
2021/01/11 17:17:42;;;;;;;57.07;28.50;;;;;;;1.33;57.79;99358.87;260875;1104;114871;-69
2021/01/11 17:22:46;;;;;;;56.58;29.15;;;;;;;1.31;57.61;99363.27;260895;1103;115017;-65
2021/01/11 17:27:49;;;;;;;63.77;31.50;;;;;;;1.30;57.40;99358.92;260930;1104;115153;-65
2021/01/11 17:32:51;;;;;;;63.47;33.40;;;;;;;1.26;57.25;99351.98;260915;1104;115413;-65
2021/01/11 17:37:54;;;;;;;73.57;36.67;;;;;;;1.23;57.36;99352.08;260848;1104;114992;-64
2021/01/11 17:42:56;;;;;;;67.53;33.70;;;;;;;1.22;57.47;99353.80;260710;1104;115096;-65
2021/01/11 17:47:59;;;;;;;71.20;35.33;;;;;;;1.17;57.28;99347.80;260816;1104;114716;-65
2021/01/11 17:53:01;;;;;;;75.17;35.33;;;;;;;1.15;57.59;99345.19;260869;1104;115270;-66
2021/01/11 17:58:03;;;;;;;68.70;36.03;;;;;;;1.10;57.67;99340.95;260637;1104;114890;-65
2021/01/11 18:03:06;;;;;;;66.77;33.13;;;;;;;1.07;58.34;99349.73;260903;1104;115172;-67
2021/01/11 18:08:10;;;;;;;70.30;32.90;;;;;;;0.98;58.39;99352.50;260791;1104;115535;-64
2021/01/11 18:13:14;;;;;;;65.43;35.43;;;;;;;0.91;58.39;99353.52;260693;1104;115530;-64
2021/01/11 18:18:16;;;;;;;71.80;34.60;;;;;;;0.85;58.06;99353.61;260833;1104;114838;-63
2021/01/11 18:23:20;;;;;;;73.17;35.43;;;;;;;0.80;58.58;99355.47;260807;1104;115192;-65
2021/01/11 18:28:22;;;;;;;71.47;35.80;;;;;;;0.73;58.26;99351.23;260674;1104;114871;-64
2021/01/11 18:33:24;;;;;;;75.83;34.97;;;;;;;0.70;58.62;99346.90;260813;1104;115198;-64
2021/01/11 18:38:27;;;;;;;84.97;39.80;;;;;;;0.67;58.36;99341.71;260773;1104;115077;-64
2021/01/11 18:43:29;;;;;;;80.67;39.03;;;;;;;0.66;58.58;99348.70;260846;1104;114929;-64
2021/01/11 18:48:32;;;;;;;78.27;39.10;;;;;;;0.58;58.54;99345.37;260854;1104;114804;-64
2021/01/11 18:53:37;;;;;;;91.77;43.97;;;;;;;0.54;58.29;99333.19;260954;1104;114929;-64
2021/01/11 18:58:39;;;;;;;96.67;45.67;;;;;;;0.51;58.63;99335.00;260722;1104;115054;-64
2021/01/11 19:03:42;;;;;;;96.77;47.27;;;;;;;0.46;59.09;99335.95;260898;1103;114704;-64
2021/01/11 19:08:44;;;;;;;102.53;49.27;;;;;;;0.44;59.72;99334.23;260835;1104;114709;-64
2021/01/11 19:13:47;;;;;;;100.47;45.03;;;;;;;0.38;59.10;99324.75;260819;1104;115007;-64
2021/01/11 19:18:50;;;;;;;102.93;45.27;;;;;;;0.35;59.99;99329.17;260715;1103;114969;-65
2021/01/11 19:23:52;;;;;;;92.07;45.00;;;;;;;0.34;59.09;99314.33;260751;1104;115174;-64
2021/01/11 19:28:56;;;;;;;104.10;49.20;;;;;;;0.31;60.33;99314.41;260827;1104;114918;-63
2021/01/11 19:33:58;;;;;;;100.87;47.43;;;;;;;0.30;60.18;99312.66;260928;1103;115428;-64
2021/01/11 19:39:02;;;;;;;101.67;49.00;;;;;;;0.25;60.02;99301.42;260770;1104;114968;-67
2021/01/11 19:44:04;;;;;;;92.93;46.57;;;;;;;0.21;59.53;99298.84;260844;1104;114877;-64
2021/01/11 19:49:07;;;;;;;104.47;46.33;;;;;;;0.16;60.11;99295.42;260877;1103;114946;-63
2021/01/11 19:54:10;;;;;;;97.37;48.23;;;;;;;0.14;60.28;99298.98;260785;1104;114984;-63
2021/01/11 19:59:12;;;;;;;101.00;50.90;;;;;;;0.11;60.41;99299.87;260782;1104;115883;-64
2021/01/11 20:04:14;;;;;;;111.17;51.13;;;;;;;0.10;59.70;99299.89;260815;1104;115057;-64
2021/01/11 20:09:18;;;;;;;113.53;51.40;;;;;;;0.09;60.23;99291.17;260741;1104;114973;-64
2021/01/11 20:14:20;;;;;;;112.10;49.70;;;;;;;0.04;60.07;99284.31;260825;1104;115123;-65
2021/01/11 20:19:22;;;;;;;113.00;53.40;;;;;;;-0.03;60.71;99278.30;260823;1104;115134;-64
2021/01/11 20:24:25;;;;;;;116.53;53.90;;;;;;;-0.08;60.54;99270.51;260961;1104;115236;-65
2021/01/11 20:29:27;;;;;;;110.27;53.90;;;;;;;-0.11;60.79;99272.31;260912;1104;115125;-64
2021/01/11 20:34:29;;;;;;;119.93;54.73;;;;;;;-0.18;60.17;99262.83;260860;1104;115178;-64
2021/01/11 20:39:32;;;;;;;115.47;54.50;;;;;;;-0.20;61.09;99256.74;260856;1104;114892;-66
2021/01/11 20:44:34;;;;;;;116.63;58.43;;;;;;;-0.21;60.42;99258.50;260635;1104;115200;-64
2021/01/11 20:49:39;;;;;;;131.70;61.63;;;;;;;-0.23;59.51;99249.83;260827;1104;115908;-64
2021/01/11 20:54:41;;;;;;;;;;;;;;;-0.26;61.06;99242.89;261050;1104;114945;-64
2021/01/11 20:59:44;;;;;;;127.50;58.07;;;;;;;-0.31;61.06;99242.08;260936;1104;102656;-64
2021/01/11 21:04:49;;;;;;;131.83;60.33;;;;;;;-0.34;59.68;99236.03;260913;1104;115244;-71
2021/01/11 21:09:51;;;;;;;144.90;66.03;;;;;;;-0.35;61.15;99232.56;260830;1104;115240;-67
2021/01/11 21:14:54;;;;;;;137.43;64.33;;;;;;;-0.39;60.92;99223.05;260759;1104;115404;-67
2021/01/11 21:19:57;;;;;;;151.00;67.90;;;;;;;-0.46;59.98;99221.41;260886;1104;114689;-68
2021/01/11 21:24:59;;;;;;;152.27;68.93;;;;;;;-0.53;60.01;99214.55;260909;1104;115297;-66
2021/01/11 21:30:02;;;;;;;151.80;69.93;;;;;;;-0.59;60.53;99214.63;260773;1103;115326;-68
2021/01/11 21:35:06;;;;;;;152.00;70.95;;;;;;;-0.62;59.86;99207.69;260974;1103;115103;-68
2021/01/11 21:40:14;;;;;;;163.50;72.33;;;;;;;-0.64;60.26;99201.64;260740;1104;115027;-67
2021/01/11 21:45:17;;;;;;;158.57;72.80;;;;;;;-0.61;60.50;99196.38;260835;1104;115287;-67
2021/01/11 21:50:19;;;;;;;162.20;72.23;;;;;;;-0.65;61.39;99185.96;260923;1104;115140;-70
2021/01/11 21:55:22;;;;;;;158.87;73.70;;;;;;;-0.77;61.13;99179.17;260921;1104;114993;-67
2021/01/11 22:00:24;;;;;;;163.03;72.20;;;;;;;-0.79;60.68;99171.34;260945;1103;115039;-67
2021/01/11 22:05:26;;;;;;;157.40;71.67;;;;;;;-0.76;60.19;99163.46;260862;1104;115116;-65
2021/01/11 22:10:30;;;;;;;149.53;69.58;;;;;;;-0.78;60.84;99154.80;260912;1104;114926;-67
2021/01/11 22:15:35;;;;;;;148.38;67.92;;;;;;;-0.83;60.50;99148.77;260955;1104;114920;-69
2021/01/11 22:20:37;;;;;;;143.47;63.90;;;;;;;-0.88;61.62;99140.15;260850;1104;115005;-65
2021/01/11 22:25:39;;;;;;;148.70;66.93;;;;;;;-0.95;61.17;99138.51;260854;1104;115213;-68
2021/01/11 22:30:45;;;;;;;142.03;66.37;;;;;;;-0.96;60.64;99137.62;260906;1104;115450;-67
2021/01/11 22:35:49;;;;;;;140.73;65.67;;;;;;;-0.99;60.25;99129.82;260886;1104;115385;-68
2021/01/11 22:40:52;;;;;;;135.32;64.05;;;;;;;-0.99;61.06;99131.58;260794;1104;115317;-67
2021/01/11 22:45:55;;;;;;;140.77;64.50;;;;;;;-0.97;60.39;99130.67;260785;1104;114981;-68
2021/01/11 22:50:57;;;;;;;141.00;63.17;;;;;;;-1.00;61.12;99122.02;260760;1103;115222;-67
2021/01/11 22:56:23;;;;;;;132.83;63.37;;;;;;;-1.03;61.56;99114.23;260848;1104;115036;-67
2021/01/11 23:01:25;;;;;;;148.13;64.60;;;;;;;-1.04;61.30;99115.13;260747;1104;115789;-68
2021/01/11 23:06:28;;;;;;;143.77;64.53;;;;;;;-1.07;61.95;99107.33;260605;1104;115216;-68
2021/01/11 23:11:30;;;;;;;142.33;65.20;;;;;;;-1.07;60.82;99102.11;260892;1103;115132;-63
2021/01/11 23:16:33;;;;;;;149.20;67.20;;;;;;;-1.11;60.94;99097.82;260799;1104;115249;-65
2021/01/11 23:21:36;;;;;;;143.23;67.70;;;;;;;-1.21;60.76;99099.69;260377;1104;115166;-65
2021/01/11 23:26:40;;;;;;;156.93;70.37;;;;;;;-1.27;60.90;99094.55;260660;1104;115126;-67
2021/01/11 23:31:42;;;;;;;150.50;70.27;;;;;;;-1.32;62.07;99085.93;260938;1104;115354;-67